Latest Weather Observations for Moruya Airport

IDN60801

Issued at 2:35 am EST Wednesday 3 September 2014 (issued every 30 minutes, with the page automatically refreshed every 10 minutes)

About weather observations | Map of weather stations | Latest weather observations for NSW | Other Formats
Station Details ID: 069148 Name: MORUYA AIRPORT AWS Lat: -35.90 Lon: 150.14 Height: 4.0 m
Data from the previous 72 hours. | See also: Recent months for locations in New South Wales
Date/Time
EST
Temp
°C
App
Temp
°C
Dew
Point
Rel
Hum
%
Delta-T
°C
Wind Press
QNH
hPa
Press
MSL
hPa
Rain
since 9 am
mm
Dir
 
Spd
km/h
Gust
km/h
Spd
kts
Gust
kts
03/02:30am 11.0 4.2 3.1 58 3.4 SW 28 44 15 24 1013.8 - 3.6
03/02:00am 11.1 4.3 2.9 57 3.6 SSW 28 46 15 25 1013.8 1013.8 3.6
03/01:30am 11.2 4.0 2.8 56 3.6 SSW 30 43 16 23 1013.9 - 3.6
03/01:00am 11.3 3.7 2.6 55 3.8 SW 32 46 17 25 1014.0 1014.0 3.6
03/12:55am 11.3 4.4 2.6 55 3.8 SSW 28 46 15 25 1014.0 - 3.6
03/12:30am 11.3 4.8 2.9 56 3.7 SSW 26 41 14 22 1014.1 - 3.6
03/12:03am 11.4 4.2 3.2 57 3.6 SW 30 48 16 26 1014.0 - 3.6
03/12:00am 11.6 3.9 3.4 57 3.6 SSW 33 48 18 26 1014.0 1014.0 3.6
 
Date/Time
EST
Temp
°C
App
Temp
°C
Dew
Point
Rel
Hum
%
Delta-T
°C
Wind Press
QNH
hPa
Press
MSL
hPa
Rain
since 9 am
mm
Dir
 
Spd
km/h
Gust
km/h
Spd
kts
Gust
kts
02/11:30pm 11.6 3.6 3.6 58 3.5 SSW 35 54 19 29 1014.0 - 3.6
02/11:22pm 11.5 4.8 3.8 59 3.4 SSW 28 48 15 26 1014.0 - 3.6
02/11:00pm 11.3 4.7 4.3 62 3.1 SSW 28 44 15 24 1014.1 1014.1 3.6
02/10:30pm 11.4 3.9 4.4 62 3.2 SSW 33 59 18 32 1014.0 - 3.6
02/10:00pm 11.5 3.6 4.5 62 3.2 SSW 35 57 19 31 1013.6 1013.6 3.6
02/09:30pm 11.3 3.0 4.3 62 3.1 SSW 37 57 20 31 1013.1 - 3.6
02/09:00pm 11.3 2.7 4.7 64 3.0 SW 39 59 21 32 1013.1 1013.1 3.6
02/08:31pm 10.9 3.7 5.2 68 2.6 SW 32 50 17 27 1013.2 - 3.6
02/08:30pm 10.7 4.0 5.5 70 2.4 SW 30 43 16 23 1013.1 - 3.6
02/08:00pm 9.9 3.8 6.4 79 1.6 SW 28 37 15 20 1012.8 1012.8 3.6
02/07:30pm 9.8 4.2 7.1 83 1.3 SW 26 37 14 20 1012.8 - 3.6
02/07:09pm 9.6 3.6 7.0 84 1.2 SW 28 50 15 27 1012.3 - 3.6
02/07:00pm 9.2 3.7 7.5 89 0.8 SW 26 41 14 22 1012.2 1012.2 3.6
02/06:30pm 8.8 4.1 7.7 93 0.5 SW 22 32 12 17 1012.0 - 3.6
02/06:00pm 8.7 5.4 7.9 95 0.4 WSW 15 26 8 14 1011.6 1011.6 3.4
02/05:30pm 8.8 5.1 7.9 94 0.4 W 17 32 9 17 1011.0 - 2.6
02/05:00pm 9.3 5.7 8.2 93 0.5 WSW 17 30 9 16 1011.1 1011.1 2.2
02/04:30pm 9.5 6.8 8.9 96 0.3 W 13 22 7 12 1010.8 - 1.8
02/04:00pm 9.9 6.9 9.3 96 0.3 WSW 15 26 8 14 1010.5 1010.5 1.6
02/03:30pm 10.6 6.2 9.0 90 0.8 SW 22 33 12 18 1010.2 - 0.8
02/03:00pm 11.8 6.5 8.5 80 1.6 SW 26 35 14 19 1009.7 1009.7 0.4
02/02:30pm 14.7 8.6 6.5 58 4.0 SW 28 41 15 22 1008.8 - 0.0
02/02:00pm 15.0 7.7 4.4 49 4.9 SSW 32 44 17 24 1008.5 1008.4 0.0
02/01:38pm 15.3 8.3 4.1 47 5.2 SSW 30 50 16 27 1008.5 - 0.0
02/01:30pm 15.6 10.0 5.2 50 4.9 SSW 24 37 13 20 1008.5 - 0.0
02/01:00pm 15.6 11.9 6.1 53 4.6 SSW 15 20 8 11 1008.6 1008.5 0.0
02/12:30pm 16.3 12.7 6.7 53 4.7 SW 15 24 8 13 1008.5 - 0.0
02/12:00pm 16.0 13.4 6.2 52 4.8 S 9 13 5 7 1008.8 1008.7 0.0
02/11:30am 15.5 13.1 6.8 56 4.3 WSW 9 11 5 6 1009.1 - 0.0
02/11:00am 14.4 13.0 5.7 56 4.1 NNW 2 6 1 3 1009.4 1009.4 0.0
02/10:30am 14.1 13.0 6.7 61 3.6 NNW 2 7 1 4 1009.5 - 0.0
02/10:00am 14.0 12.1 7.5 65 3.2 WSW 7 11 4 6 1009.6 1009.6 0.0
02/09:30am 13.3 11.6 8.4 72 2.4 WSW 7 11 4 6 1009.5 - 0.0
02/09:00am 12.3 11.8 9.3 82 1.5 WNW 2 9 1 5 1009.9 1009.9 0.0
02/08:30am 11.9 10.1 9.3 84 1.3 W 9 15 5 8 1009.6 - 0.0
02/08:00am 11.6 9.4 9.5 87 1.1 SW 11 15 6 8 1009.3 1009.3 0.0
02/07:30am 11.6 7.6 9.2 85 1.2 SSW 20 30 11 16 1009.0 - 0.0
02/07:12am 11.9 6.3 8.9 82 1.5 SSW 28 46 15 25 1008.7 - 0.0
02/07:00am 12.7 8.9 11.3 91 0.7 SSW 22 32 12 17 1008.7 1008.6 0.0
02/06:41am 13.0 11.7 12.4 96 0.3 SW 11 19 6 10 1008.1 - 0.0
02/06:30am 13.1 12.2 12.5 96 0.3 SSW 9 15 5 8 1008.1 - 0.0
02/06:11am 13.1 12.6 12.6 97 0.3 SW 7 13 4 7 1007.9 - 0.0
02/06:00am 12.8 12.3 12.0 95 0.4 SW 6 9 3 5 1007.7 1007.6 0.0
02/05:30am 13.2 12.2 12.3 94 0.5 WSW 9 13 5 7 1007.4 - 0.0
02/05:00am 13.0 11.6 12.1 94 0.5 WNW 11 13 6 7 1007.6 1007.5 0.0
02/04:51am 13.1 12.2 12.5 96 0.3 W 9 13 5 7 1007.4 - 0.0
02/04:30am 13.5 13.2 13.2 98 0.2 W 7 11 4 6 1007.6 - 0.0
02/04:22am 13.2 12.7 12.7 97 0.3 W 7 9 4 5 1007.4 - 0.0
02/04:00am 13.8 13.6 13.5 98 0.2 S 7 11 4 6 1006.9 1006.8 0.0
02/03:30am 13.3 14.1 12.4 94 0.5 CALM 0 6 0 3 1007.2 - 0.0
02/03:00am 13.9 13.6 12.8 93 0.6 SSW 6 9 3 5 1007.7 1007.6 0.0
02/02:30am 13.8 12.6 11.7 87 1.1 S 9 13 5 7 1007.8 - 0.0
02/02:00am 12.8 11.7 10.7 87 1.1 S 7 11 4 6 1007.9 1007.8 0.0
02/01:30am 11.9 11.0 10.6 92 0.7 SW 6 9 3 5 1007.6 - 0.0
02/01:00am 12.1 11.2 10.7 91 0.7 NW 6 7 3 4 1007.7 1007.6 0.0
02/12:30am 12.5 11.6 10.6 88 1.0 WSW 6 7 3 4 1007.9 - 0.0
02/12:00am 12.9 11.8 10.8 87 1.1 NNW 7 9 4 5 1007.9 1007.8 0.0
 
Date/Time
EST
Temp
°C
App
Temp
°C
Dew
Point
Rel
Hum
%
Delta-T
°C
Wind Press
QNH
hPa
Press
MSL
hPa
Rain
since 9 am
mm
Dir
 
Spd
km/h
Gust
km/h
Spd
kts
Gust
kts
01/11:30pm 13.3 11.8 10.7 84 1.4 NNW 9 11 5 6 1008.1 - 0.0
01/11:00pm 14.0 12.3 10.0 77 2.1 NNW 9 13 5 7 1008.3 1008.2 0.0
01/10:30pm 13.9 12.3 10.1 78 2.0 NNW 9 11 5 6 1008.2 - 0.0
01/10:00pm 14.7 12.6 9.7 72 2.6 NNW 11 15 6 8 1008.4 1008.3 0.0
01/09:30pm 13.5 12.7 11.0 85 1.3 NNW 6 7 3 4 1008.6 - 0.0
01/09:00pm 13.9 13.4 10.7 81 1.7 NNW 4 6 2 3 1008.7 1008.6 0.0
01/08:30pm 14.3 13.2 10.7 79 1.9 NNW 7 9 4 5 1008.9 - 0.0
01/08:00pm 14.2 13.7 9.4 73 2.5 NNW 2 7 1 4 1008.9 1008.9 0.0
01/07:30pm 15.3 14.6 8.5 64 3.4 N 2 7 1 4 1009.0 - 0.0
01/07:00pm 17.5 15.2 7.5 52 5.0 N 9 15 5 8 1009.1 1009.1 0.0
01/06:30pm 18.5 15.6 6.7 46 5.9 N 11 15 6 8 1008.7 - 0.0
01/06:00pm 19.0 16.1 6.5 44 6.2 N 11 15 6 8 1008.5 1008.4 0.0
01/05:30pm 19.2 16.3 6.3 43 6.4 N 11 17 6 9 1008.3 - 0.0
01/05:00pm 18.3 16.7 8.6 53 5.0 N 7 11 4 6 1008.3 1008.2 0.0
01/04:51pm 18.5 16.8 8.5 52 5.2 N 7 11 4 6 1008.2 - 0.0
01/04:30pm 18.3 17.5 10.9 62 4.0 N 6 9 3 5 1007.9 - 0.0
01/04:14pm 19.1 18.2 10.6 58 4.6 NNE 6 7 3 4 1007.9 - 0.0
01/04:00pm 20.1 18.5 8.8 48 5.9 N 7 9 4 5 1007.9 1007.8 0.0
01/03:30pm 20.5 18.8 8.2 45 6.4 N 7 13 4 7 1008.1 - 0.0
01/03:00pm 20.9 18.3 7.9 43 6.8 N 11 15 6 8 1008.2 1008.1 0.0
01/02:30pm 21.5 18.8 7.3 40 7.3 N 11 17 6 9 1008.4 - 0.0
01/02:00pm 21.7 18.5 6.8 38 7.6 N 13 20 7 11 1008.8 1008.7 0.0
01/01:30pm 22.6 19.3 8.0 39 7.7 N 15 24 8 13 1009.3 - 0.0
01/01:00pm 22.3 18.8 7.3 38 7.8 NNW 15 26 8 14 1009.8 1009.8 0.0
01/12:30pm 22.1 18.2 7.1 38 7.7 NNW 17 26 9 14 1010.4 - 0.0
01/12:00pm 21.9 18.8 7.3 39 7.5 NNW 13 22 7 12 1010.7 1010.7 0.0
01/11:30am 21.5 18.7 8.4 43 6.9 NW 13 20 7 11 1011.4 - 0.0
01/11:00am 21.5 18.1 7.7 41 7.2 NW 15 26 8 14 1011.8 1011.8 0.0
01/10:30am 20.8 18.3 8.1 44 6.6 NNW 11 20 6 11 1012.1 - 0.0
01/10:00am 18.4 16.7 10.0 58 4.5 N 9 15 5 8 1012.7 1012.7 0.0
01/09:32am 14.8 15.1 12.1 84 1.5 ENE 2 6 1 3 1013.2 - 0.0
01/09:30am 14.6 15.6 13.1 91 0.8 CALM 0 6 0 3 1013.3 - 0.0
01/09:00am 13.1 13.0 12.0 93 0.6 NNE 4 7 2 4 1013.4 1013.4 0.0
01/08:49am 12.8 12.3 11.9 94 0.5 NNE 6 11 3 6 1013.5 - 0.0
01/08:30am 12.6 12.7 12.6 100 0.0 N 4 7 2 4 1013.8 - 0.0
01/08:00am 9.9 9.9 9.9 100 0.0 CALM 0 0 0 0 1014.0 1014.0 0.0
01/07:30am 6.7 5.9 6.7 100 0.0 CALM 0 0 0 0 1014.0 - 0.0
01/07:00am 5.2 4.1 5.2 100 0.0 CALM 0 0 0 0 1014.0 1014.0 0.0
01/06:55am 5.1 4.0 5.1 100 0.0 CALM 0 4 0 2 1014.1 - 0.0
01/06:30am 4.4 2.8 4.4 100 0.0 N 2 7 1 4 1014.1 - 0.0
01/06:00am 3.7 1.9 3.7 100 0.0 W 2 7 1 4 1014.0 1014.0 0.0
01/05:30am 4.3 1.9 4.3 100 0.0 NW 6 7 3 4 1013.9 - 0.0
01/05:00am 4.7 2.4 4.7 100 0.0 WNW 6 7 3 4 1013.8 1013.8 0.0
01/04:30am 5.1 4.0 5.1 100 0.0 CALM 0 0 0 0 1013.9 - 0.0
01/04:00am 4.5 2.9 4.5 100 0.0 NW 2 6 1 3 1014.0 1014.0 0.0
01/03:30am 5.1 2.9 5.1 100 0.0 NNW 6 7 3 4 1014.0 - 0.0
01/03:00am 4.4 3.2 4.4 100 0.0 CALM 0 0 0 0 1014.3 1014.3 0.0
01/02:30am 5.6 4.6 5.6 100 0.0 CALM 0 0 0 0 1014.5 - 0.0
01/02:00am 6.0 5.1 6.0 100 0.0 CALM 0 0 0 0 1014.8 1014.8 0.0
01/01:30am 6.0 5.1 6.0 100 0.0 CALM 0 0 0 0 1015.2 - 0.0
01/01:00am 6.1 5.2 6.1 100 0.0 CALM 0 0 0 0 1015.8 1015.8 0.0
01/12:30am 6.9 6.2 6.9 100 0.0 CALM 0 0 0 0 1016.0 - 0.0
01/12:00am 7.5 5.8 7.5 100 0.0 WNW 6 7 3 4 1016.1 1016.1 0.0
 
Date/Time
EST
Temp
°C
App
Temp
°C
Dew
Point
Rel
Hum
%
Delta-T
°C
Wind Press
QNH
hPa
Press
MSL
hPa
Rain
since 9 am
mm
Dir
 
Spd
km/h
Gust
km/h
Spd
kts
Gust
kts
31/11:30pm 8.0 7.5 8.0 100 0.0 CALM 0 0 0 0 1016.2 - 0.0
31/11:00pm 8.2 7.8 8.2 100 0.0 CALM 0 0 0 0 1016.6 1016.6 0.0
31/10:30pm 8.3 7.9 8.3 100 0.0 CALM 0 0 0 0 1016.7 - 0.0
31/10:00pm 8.7 8.4 8.7 100 0.0 CALM 0 0 0 0 1017.1 1017.1 0.0
31/09:31pm 8.6 8.3 8.6 100 0.0 CALM 0 0 0 0 1017.2 - 0.0
31/09:30pm 8.6 8.3 8.6 100 0.0 CALM 0 0 0 0 1017.2 - 0.0
31/09:00pm 9.6 9.5 9.6 100 0.0 CALM 0 0 0 0 1017.4 1017.4 0.0
31/08:58pm 9.6 9.5 9.6 100 0.0 CALM 0 0 0 0 1017.4 - 0.0
31/08:36pm 9.7 9.7 9.7 100 0.0 CALM 0 0 0 0 1017.4 - 0.0
31/08:30pm 9.7 9.7 9.7 100 0.0 CALM 0 0 0 0 1017.4 - 0.0
31/08:02pm 9.7 9.3 9.7 100 0.0 N 2 6 1 3 1017.4 - 0.0
31/08:00pm 9.7 9.3 9.7 100 0.0 N 2 6 1 3 1017.4 1017.4 0.0
31/07:42pm 9.9 9.5 9.9 100 0.0 N 2 6 1 3 1017.4 - 0.0
31/07:30pm 10.3 9.7 10.3 100 0.0 N 4 6 2 3 1017.3 - 0.0
31/07:00pm 11.3 11.7 11.1 99 0.1 CALM 0 0 0 0 1017.3 1017.3 0.0
31/06:30pm 11.2 11.2 9.8 91 0.7 CALM 0 0 0 0 1017.1 - 0.0
31/06:07pm 13.0 12.5 11.9 93 0.6 N 6 7 3 4 1016.9 - 0.0
31/06:00pm 13.5 12.9 12.2 92 0.7 N 7 9 4 5 1016.9 1016.9 0.0
31/05:46pm 14.5 14.1 12.9 90 0.9 N 7 11 4 6 1016.8 - 0.0
31/05:30pm 15.5 14.1 13.5 88 1.1 NNE 13 15 7 8 1016.6 - 0.0
31/05:00pm 16.3 15.0 13.6 84 1.5 NE 13 19 7 10 1016.3 1016.3 0.0
31/04:30pm 16.7 14.5 13.4 81 1.9 NE 17 20 9 11 1016.3 - 0.0
31/04:00pm 17.1 14.6 13.4 79 2.1 NE 19 22 10 12 1016.2 1016.2 0.0
31/03:30pm 17.2 14.6 13.1 77 2.3 NE 19 24 10 13 1016.5 - 0.0
31/03:00pm 17.4 15.1 13.1 76 2.4 NE 17 20 9 11 1016.8 1016.8 0.0
31/02:30pm 17.7 15.1 13.2 75 2.5 NE 19 20 10 11 1017.0 - 0.0
31/02:00pm 17.6 14.8 12.5 72 2.8 ENE 19 22 10 12 1017.1 1017.1 0.0
31/01:30pm 17.8 15.6 13.3 75 2.5 ENE 17 20 9 11 1017.5 - 0.0
31/01:00pm 17.4 15.3 12.3 72 2.8 ENE 15 19 8 10 1018.0 1018.0 0.0
31/12:30pm 17.7 15.3 12.8 73 2.7 ENE 17 19 9 10 1018.3 - 0.0
31/12:00pm 17.1 15.1 12.6 75 2.5 ENE 15 19 8 10 1018.8 1018.8 0.0
31/11:30am 16.6 14.7 11.9 74 2.6 ENE 13 15 7 8 1019.5 - 0.0
31/11:00am 17.0 15.5 11.9 72 2.8 ENE 11 15 6 8 1019.9 1019.9 0.0
31/10:30am 17.4 16.7 11.4 68 3.3 S 6 11 3 6 1020.3 - 0.0
31/10:00am 16.5 15.1 10.8 69 3.0 SSW 9 13 5 7 1020.5 1020.5 0.0
31/09:30am 15.7 15.4 10.2 70 2.9 NW 2 7 1 4 1020.6 - 0.0
31/09:00am 13.9 12.4 10.5 80 1.8 SW 9 13 5 7 1020.8 1020.8 0.0
31/08:30am 12.7 11.7 10.2 85 1.3 WSW 6 11 3 6 1021.0 - 0.0
31/08:00am 11.1 10.1 10.3 95 0.4 W 6 11 3 6 1021.1 1021.1 0.0
31/07:30am 9.3 8.4 9.3 100 0.0 W 4 11 2 6 1021.0 - 0.0
31/07:00am 7.5 6.9 7.5 100 0.0 CALM 0 4 0 2 1020.8 1020.8 0.0
31/06:30am 6.5 4.9 6.5 100 0.0 WSW 4 6 2 3 1020.7 - 0.0
31/06:00am 6.6 4.7 6.6 100 0.0 W 6 6 3 3 1020.5 1020.5 0.0
31/05:36am 7.3 5.3 7.3 100 0.0 WSW 7 9 4 5 1020.5 - 0.0
31/05:30am 7.2 5.8 7.2 100 0.0 WSW 4 9 2 5 1020.5 - 0.0
31/05:16am 6.6 5.8 6.6 100 0.0 CALM 0 6 0 3 1020.5 - 0.0
31/05:00am 7.3 6.7 7.3 100 0.0 CALM 0 0 0 0 1020.6 1020.6 0.0
31/04:30am 8.2 6.5 8.2 100 0.0 W 7 9 4 5 1020.6 - 0.0
31/04:00am 8.7 6.7 8.7 100 0.0 W 9 11 5 6 1020.8 1020.8 0.0
31/03:30am 8.8 6.8 8.8 100 0.0 W 9 11 5 6 1020.9 - 0.0
31/03:00am 9.1 7.2 9.1 100 0.0 W 9 11 5 6 1021.2 1021.2 0.0

Other Formats:

Comma delimited format used in spreadsheet applications
http://www.bom.gov.au/fwo/IDN60801/IDN60801.95937.axf

JavaScript Object Notation format (JSON) in row-major order
http://www.bom.gov.au/fwo/IDN60801/IDN60801.95937.json